createdAt,value
2018-11-26T00:01:45.253Z,23.57
2018-11-26T00:04:14.300Z,24.43
2018-11-26T00:06:43.287Z,24.50
2018-11-26T00:09:13.308Z,25.37
2018-11-26T00:11:42.401Z,25.07
2018-11-26T00:14:11.441Z,25.60
2018-11-26T00:16:40.501Z,23.93
2018-11-26T00:19:09.516Z,25.00
2018-11-26T00:21:38.543Z,24.03
2018-11-26T00:24:07.566Z,23.87
2018-11-26T00:26:36.660Z,22.63
2018-11-26T00:29:05.675Z,23.07
2018-11-26T00:31:34.683Z,23.55
2018-11-26T00:34:03.711Z,22.40
2018-11-26T00:36:32.726Z,23.20
2018-11-26T00:39:01.748Z,22.00
2018-11-26T00:41:30.837Z,21.83
2018-11-26T00:43:59.842Z,23.93
2018-11-26T00:46:28.889Z,21.73
2018-11-26T00:48:57.926Z,21.37
2018-11-26T00:51:26.933Z,23.02
2018-11-26T00:53:56.037Z,21.20
2018-11-26T00:56:25.080Z,21.37
2018-11-26T00:58:54.058Z,20.17
2018-11-26T01:01:23.045Z,18.87
2018-11-26T01:03:52.111Z,21.17
2018-11-26T01:06:21.118Z,22.30
2018-11-26T01:08:50.106Z,23.30
2018-11-26T01:11:19.721Z,22.77
2018-11-26T01:13:48.799Z,22.52
2018-11-26T01:16:17.800Z,23.13
2018-11-26T01:18:46.805Z,21.97
2018-11-26T01:21:15.796Z,21.37
2018-11-26T01:23:44.824Z,20.72
2018-11-26T01:26:13.901Z,21.33
2018-11-26T01:28:42.969Z,22.13
2018-11-26T01:31:12.065Z,22.87
2018-11-26T01:33:41.172Z,21.30
2018-11-26T01:36:10.225Z,22.23
2018-11-26T01:38:39.267Z,23.17
2018-11-26T01:41:08.311Z,21.97
2018-11-26T01:43:37.346Z,23.50
2018-11-26T01:46:06.677Z,22.60
2018-11-26T01:48:35.709Z,22.50
2018-11-26T01:51:04.821Z,21.40
2018-11-26T01:53:33.865Z,21.27
2018-11-26T01:56:02.933Z,20.97
2018-11-26T01:58:31.989Z,20.40
2018-11-26T02:01:01.717Z,21.23
2018-11-26T02:03:31.733Z,21.48
2018-11-26T02:06:00.781Z,20.30
2018-11-26T02:08:29.856Z,20.63
2018-11-26T02:10:58.846Z,20.47
2018-11-26T02:13:28.035Z,21.73
2018-11-26T02:15:57.088Z,20.27
2018-11-26T02:18:26.137Z,19.67
2018-11-26T02:20:55.170Z,19.43
2018-11-26T02:23:24.185Z,18.23
2018-11-26T02:25:53.298Z,18.83
2018-11-26T02:28:22.296Z,19.03
2018-11-26T02:30:51.346Z,17.63
2018-11-26T02:33:20.353Z,19.13
2018-11-26T02:35:49.370Z,18.33
2018-11-26T02:38:18.435Z,19.23
2018-11-26T02:40:47.468Z,19.53
2018-11-26T02:43:16.602Z,17.63
2018-11-26T02:45:45.653Z,19.70
2018-11-26T02:48:14.657Z,19.30
2018-11-26T02:50:43.658Z,20.57
2018-11-26T02:53:12.670Z,19.30
2018-11-26T02:55:41.659Z,21.00
2018-11-26T02:58:10.837Z,20.23
2018-11-26T03:00:39.862Z,19.20
2018-11-26T03:03:08.913Z,21.37
2018-11-26T03:05:37.914Z,19.77
2018-11-26T03:08:06.909Z,19.93
2018-11-26T03:10:35.908Z,18.82
2018-11-26T03:13:04.951Z,19.77
2018-11-26T03:15:34.789Z,20.07
2018-11-26T03:18:03.845Z,19.53
2018-11-26T03:20:33.247Z,20.15
2018-11-26T03:23:03.307Z,19.15
2018-11-26T03:25:32.313Z,19.27
2018-11-26T03:28:01.328Z,19.27
2018-11-26T03:30:30.351Z,19.42
2018-11-26T03:32:59.500Z,19.82
2018-11-26T03:35:28.562Z,20.33
2018-11-26T03:37:57.678Z,20.00
2018-11-26T03:40:26.717Z,20.68
2018-11-26T03:42:55.726Z,19.30
2018-11-26T03:45:24.727Z,17.27
2018-11-26T03:47:53.793Z,19.50
2018-11-26T03:50:22.800Z,21.87
2018-11-26T03:52:51.809Z,20.40
2018-11-26T03:55:20.799Z,21.90
2018-11-26T03:57:49.833Z,20.25
2018-11-26T04:00:18.874Z,19.85
2018-11-26T04:02:47.881Z,20.43
2018-11-26T04:05:16.947Z,21.23
2018-11-26T04:07:46.018Z,21.53
2018-11-26T04:10:15.056Z,21.47
2018-11-26T04:12:44.089Z,20.73
2018-11-26T04:15:15.355Z,21.27
2018-11-26T04:17:44.387Z,21.23
2018-11-26T04:20:13.428Z,21.27
2018-11-26T04:22:42.457Z,22.43
2018-11-26T04:25:11.929Z,22.03
2018-11-26T04:27:41.080Z,23.07
2018-11-26T04:30:12.742Z,22.50
2018-11-26T04:32:41.767Z,25.85
2018-11-26T04:35:11.077Z,24.80
2018-11-26T04:37:40.161Z,25.20
2018-11-26T04:40:10.360Z,26.27
2018-11-26T04:42:39.415Z,25.80
2018-11-26T04:45:10.103Z,26.00
2018-11-26T04:47:39.820Z,23.62
2018-11-26T04:50:12.133Z,25.87
2018-11-26T04:52:41.263Z,23.90
2018-11-26T04:55:11.993Z,24.03
2018-11-26T04:57:42.716Z,24.00
2018-11-26T05:00:12.321Z,24.23
2018-11-26T05:02:41.427Z,24.30
2018-11-26T05:05:12.166Z,26.50
2018-11-26T05:07:41.217Z,26.13
2018-11-26T05:10:11.946Z,26.07
2018-11-26T05:12:40.973Z,25.13
2018-11-26T05:15:11.940Z,25.70
2018-11-26T05:17:40.946Z,24.73
2018-11-26T05:20:11.697Z,24.97
2018-11-26T05:22:40.797Z,28.70
2018-11-26T05:25:11.181Z,28.47
2018-11-26T05:27:40.198Z,27.80
2018-11-26T05:30:11.150Z,22.57
2018-11-26T05:32:40.249Z,26.30
2018-11-26T05:35:10.708Z,26.70
2018-11-26T05:37:39.857Z,24.87
2018-11-26T05:40:12.568Z,24.57
2018-11-26T05:42:41.836Z,25.03
2018-11-26T05:45:18.409Z,25.23
2018-11-26T05:47:47.418Z,26.47
2018-11-26T05:50:16.465Z,27.20
2018-11-26T05:52:45.618Z,25.37
2018-11-26T05:55:16.888Z,27.03
2018-11-26T05:57:46.918Z,27.03
2018-11-26T06:00:20.901Z,26.53
2018-11-26T06:02:49.888Z,25.17
2018-11-26T06:05:18.921Z,25.37
2018-11-26T06:07:47.977Z,24.80
2018-11-26T06:10:17.033Z,25.80
2018-11-26T06:12:46.056Z,27.00
2018-11-26T06:15:15.070Z,26.80
2018-11-26T06:17:44.101Z,27.20
2018-11-26T06:20:14.110Z,25.43
2018-11-26T06:22:46.025Z,26.10
2018-11-26T06:25:24.979Z,25.43
2018-11-26T06:27:54.241Z,24.20
2018-11-26T06:30:24.799Z,27.27
2018-11-26T06:32:55.414Z,28.33
2018-11-26T06:35:25.007Z,29.47
2018-11-26T06:37:54.666Z,29.87
2018-11-26T06:40:24.110Z,28.87
2018-11-26T06:42:57.466Z,26.90
2018-11-26T06:45:28.044Z,28.23
2018-11-26T06:48:05.093Z,28.63
2018-11-26T06:50:53.334Z,27.80
2018-11-26T06:53:23.047Z,27.60
2018-11-26T06:55:52.575Z,25.67
2018-11-26T06:58:22.132Z,22.97
2018-11-26T07:00:54.618Z,22.07
2018-11-26T07:03:25.051Z,21.97
2018-11-26T07:05:54.583Z,23.47
2018-11-26T07:08:24.075Z,22.93
2018-11-26T07:10:55.459Z,24.70
2018-11-26T07:13:25.645Z,23.77
2018-11-26T07:15:55.649Z,26.90
2018-11-26T07:18:26.655Z,26.40
2018-11-26T07:20:56.257Z,26.68
2018-11-26T07:23:25.556Z,28.10
2018-11-26T07:25:56.189Z,27.50
2018-11-26T07:28:27.181Z,27.87
2018-11-26T07:30:56.586Z,28.53
2018-11-26T07:33:26.236Z,26.82
2018-11-26T07:35:55.864Z,28.25
2018-11-26T07:38:25.364Z,27.13
2018-11-26T07:40:54.770Z,28.97
2018-11-26T07:43:24.479Z,30.93
2018-11-26T07:45:54.221Z,30.30
2018-11-26T07:48:23.712Z,29.60
2018-11-26T07:50:53.238Z,30.47
2018-11-26T07:53:23.119Z,31.60
2018-11-26T07:55:52.540Z,32.57
2018-11-26T07:58:22.080Z,29.77
2018-11-26T08:00:51.445Z,29.27
2018-11-26T08:03:22.189Z,31.70
2018-11-26T08:05:51.736Z,28.50
2018-11-26T08:08:21.211Z,30.20
2018-11-26T08:10:53.588Z,30.12
2018-11-26T08:13:24.319Z,31.73
2018-11-26T08:20:51.326Z,30.33
2018-11-26T08:23:20.341Z,31.17
2018-11-26T08:25:49.384Z,31.93
2018-11-26T08:28:18.405Z,31.70
2018-11-26T08:30:47.417Z,32.17
2018-11-26T08:33:16.449Z,31.43
2018-11-26T08:35:45.618Z,31.47
2018-11-26T08:38:20.092Z,31.12
2018-11-26T08:40:49.613Z,34.33
2018-11-26T08:43:24.653Z,35.10
2018-11-26T08:45:56.600Z,31.97
2018-11-26T08:48:30.238Z,32.97
2018-11-26T08:51:02.708Z,35.43
2018-11-26T08:53:31.935Z,33.77
2018-11-26T08:56:01.025Z,34.17
2018-11-26T08:58:30.014Z,34.20
2018-11-26T09:01:05.144Z,34.47
2018-11-26T09:03:40.216Z,32.93
2018-11-26T09:06:09.353Z,39.00
2018-11-26T09:08:38.802Z,39.73
2018-11-26T09:11:09.501Z,38.87
2018-11-26T09:13:38.619Z,36.67
2018-11-26T09:16:07.705Z,39.40
2018-11-26T09:18:36.796Z,38.00
2018-11-26T09:21:05.865Z,40.17
2018-11-26T09:23:34.920Z,39.40
2018-11-26T09:26:04.025Z,38.60
2018-11-26T09:28:33.055Z,38.97
2018-11-26T09:31:02.122Z,36.50
2018-11-26T09:33:31.174Z,40.27
2018-11-26T09:36:00.214Z,38.40
2018-11-26T09:38:29.377Z,37.53
2018-11-26T09:40:58.433Z,38.53
2018-11-26T09:43:27.545Z,36.97
2018-11-26T09:45:56.947Z,36.53
2018-11-26T09:48:25.965Z,36.00
2018-11-26T09:50:54.977Z,35.17
2018-11-26T09:53:24.077Z,36.05
2018-11-26T09:55:53.160Z,32.00
2018-11-26T09:58:23.035Z,36.80
2018-11-26T10:00:53.100Z,34.75
2018-11-26T10:03:23.152Z,35.50
2018-11-26T10:05:52.165Z,31.60
2018-11-26T10:08:21.305Z,37.08
2018-11-26T10:10:50.345Z,37.27
2018-11-26T10:13:19.364Z,39.70
2018-11-26T10:15:48.372Z,38.23
2018-11-26T10:18:17.373Z,37.53
2018-11-26T10:20:46.429Z,41.03
2018-11-26T10:23:15.648Z,41.45
2018-11-26T10:25:45.817Z,35.15
2018-11-26T10:28:15.726Z,40.75
2018-11-26T10:30:44.795Z,38.70
2018-11-26T10:33:14.851Z,38.33
2018-11-26T10:35:42.870Z,40.30
2018-11-26T10:38:11.925Z,40.93
2018-11-26T10:40:40.942Z,39.53
2018-11-26T10:43:11.764Z,40.17
2018-11-26T10:45:39.121Z,39.10
2018-11-26T10:48:08.948Z,39.53
2018-11-26T10:50:37.993Z,37.93
2018-11-26T10:53:07.178Z,40.43
2018-11-26T10:55:37.036Z,40.40
2018-11-26T10:58:06.975Z,39.23
2018-11-26T11:00:44.981Z,42.00
2018-11-26T11:03:14.093Z,43.20
2018-11-26T11:05:43.150Z,40.83
2018-11-26T11:08:12.177Z,41.37
2018-11-26T11:10:41.205Z,43.73
2018-11-26T11:13:10.292Z,40.20
2018-11-26T11:15:39.988Z,41.07
2018-11-26T11:18:09.243Z,41.27
2018-11-26T11:20:38.345Z,37.50
2018-11-26T11:23:09.130Z,38.13
2018-11-26T11:25:38.325Z,37.40
2018-11-26T11:28:07.626Z,37.40
2018-11-26T11:30:36.636Z,37.10
2018-11-26T11:35:34.548Z,37.27
2018-11-26T11:38:03.583Z,41.27
2018-11-26T11:40:32.742Z,40.83
2018-11-26T11:43:01.972Z,37.20
2018-11-26T11:45:32.755Z,39.67
2018-11-26T11:48:01.791Z,39.80
2018-11-26T11:50:30.825Z,32.47
2018-11-26T11:52:59.844Z,35.87
2018-11-26T11:55:28.874Z,37.90
2018-11-26T11:57:58.046Z,37.23
2018-11-26T12:00:36.302Z,37.70
2018-11-26T12:03:11.576Z,38.60
2018-11-26T12:05:40.640Z,39.47
2018-11-26T12:08:09.867Z,36.13
2018-11-26T12:10:39.747Z,42.13
2018-11-26T12:13:11.427Z,35.25
2018-11-26T12:15:45.657Z,34.80
2018-11-26T12:18:15.288Z,35.47
2018-11-26T12:20:45.470Z,35.17
2018-11-26T12:23:15.062Z,35.50
2018-11-26T12:25:45.074Z,34.93
2018-11-26T12:28:15.056Z,34.07
2018-11-26T12:30:46.589Z,34.63
2018-11-26T12:33:16.329Z,34.87
2018-11-26T12:35:46.573Z,35.83
2018-11-26T12:38:16.471Z,33.70
2018-11-26T12:40:46.070Z,31.57
2018-11-26T12:43:15.815Z,29.47
2018-11-26T12:45:48.049Z,30.00
2018-11-26T12:48:22.720Z,34.70
2018-11-26T12:51:24.304Z,35.77
2018-11-26T12:53:54.764Z,33.13
2018-11-26T12:56:24.361Z,31.90
2018-11-26T12:58:54.174Z,34.03
2018-11-26T13:01:26.919Z,35.43
2018-11-26T13:03:56.575Z,33.77
2018-11-26T13:06:26.153Z,29.55
2018-11-26T13:08:56.994Z,30.80
2018-11-26T13:11:27.503Z,30.90
2018-11-26T13:13:57.868Z,31.70
2018-11-26T13:21:24.178Z,26.77
2018-11-26T13:23:53.187Z,28.53
2018-11-26T13:26:22.221Z,28.97
2018-11-26T13:28:51.251Z,28.03
2018-11-26T13:31:20.266Z,28.43
2018-11-26T13:33:49.309Z,26.30
2018-11-26T13:36:18.429Z,29.50
2018-11-26T13:38:47.448Z,31.53
2018-11-26T13:41:16.457Z,30.30
2018-11-26T13:43:45.481Z,31.93
2018-11-26T13:46:14.531Z,29.03
2018-11-26T13:48:43.558Z,29.50
2018-11-26T13:51:12.659Z,29.03
2018-11-26T13:53:41.717Z,29.47
2018-11-26T13:56:10.770Z,31.37
2018-11-26T13:58:39.855Z,36.83
2018-11-26T14:01:08.866Z,34.95
2018-11-26T14:03:37.927Z,32.37
2018-11-26T14:06:07.007Z,31.53
2018-11-26T14:08:36.232Z,29.32
2018-11-26T14:11:05.559Z,30.90
2018-11-26T14:13:34.625Z,29.20
2018-11-26T14:16:03.886Z,28.50
2018-11-26T14:18:33.230Z,27.97
2018-11-26T14:21:02.338Z,29.13
2018-11-26T14:23:31.439Z,26.60
2018-11-26T14:26:00.478Z,29.00
2018-11-26T14:28:29.533Z,28.70
2018-11-26T14:30:58.679Z,28.07
2018-11-26T14:33:27.730Z,30.33
2018-11-26T14:35:56.752Z,30.27
2018-11-26T14:38:27.419Z,28.77
2018-11-26T14:40:57.608Z,29.17
2018-11-26T14:43:27.454Z,29.83
2018-11-26T14:45:59.172Z,30.63
2018-11-26T14:48:33.721Z,30.10
2018-11-26T14:51:03.623Z,29.05
2018-11-26T14:53:33.323Z,28.30
2018-11-26T14:56:04.101Z,29.57
2018-11-26T14:58:33.830Z,28.32
2018-11-26T15:01:09.570Z,31.13
2018-11-26T15:03:38.941Z,27.67
2018-11-26T15:06:08.611Z,28.43
2018-11-26T15:08:39.691Z,29.47
2018-11-26T15:11:10.062Z,29.27
2018-11-26T15:13:39.509Z,27.27
2018-11-26T15:16:09.259Z,28.33
2018-11-26T15:18:38.881Z,28.20
2018-11-26T15:21:08.864Z,27.17
2018-11-26T15:23:38.441Z,28.80
2018-11-26T15:26:08.262Z,28.10
2018-11-26T15:31:37.196Z,30.10
2018-11-26T15:34:07.081Z,29.27
2018-11-26T15:36:37.125Z,29.63
2018-11-26T15:39:09.840Z,29.50
2018-11-26T15:41:40.178Z,27.73
2018-11-26T15:44:09.803Z,30.37
2018-11-26T15:46:39.203Z,29.65
2018-11-26T15:49:08.881Z,30.50
2018-11-26T15:51:39.375Z,32.13
2018-11-26T15:54:09.361Z,31.90
2018-11-26T15:56:38.801Z,29.87
2018-11-26T15:59:16.561Z,31.10
2018-11-26T16:01:46.238Z,29.70
2018-11-26T16:04:15.631Z,29.57
2018-11-26T16:06:45.605Z,28.47
2018-11-26T16:09:15.178Z,29.00
2018-11-26T16:11:45.928Z,26.90
2018-11-26T16:14:15.489Z,27.67
2018-11-26T16:16:44.974Z,26.50
2018-11-26T16:19:14.390Z,25.43
2018-11-26T16:21:43.856Z,28.77
2018-11-26T16:24:14.166Z,28.00
2018-11-26T16:26:44.621Z,27.55
2018-11-26T16:29:14.979Z,28.87
2018-11-26T16:31:45.197Z,28.95
2018-11-26T16:34:15.013Z,30.10
2018-11-26T16:36:44.655Z,31.48
2018-11-26T16:39:15.253Z,31.10
2018-11-26T16:41:46.266Z,30.23
2018-11-26T16:44:17.944Z,29.27
2018-11-26T16:46:47.408Z,28.70
2018-11-26T16:49:17.118Z,29.27
2018-11-26T16:51:48.322Z,28.93
2018-11-26T16:54:17.929Z,28.00
2018-11-26T16:57:16.121Z,30.20
2018-11-26T16:59:46.205Z,28.00
2018-11-26T17:05:52.050Z,27.97
2018-11-26T17:08:21.062Z,28.33
2018-11-26T17:10:50.106Z,27.60
2018-11-26T17:13:19.222Z,28.75
2018-11-26T17:15:49.279Z,28.12
2018-11-26T17:18:18.391Z,27.95
2018-11-26T17:20:47.464Z,30.17
2018-11-26T17:23:16.498Z,27.60
2018-11-26T17:25:45.622Z,28.83
2018-11-26T17:28:14.733Z,28.23
2018-11-26T17:30:43.841Z,25.83
2018-11-26T17:33:13.382Z,25.57
2018-11-26T17:35:42.423Z,28.57
2018-11-26T17:38:11.466Z,27.50
2018-11-26T17:40:40.942Z,29.87
2018-11-26T17:43:12.911Z,29.20
2018-11-26T17:45:41.962Z,30.40
2018-11-26T17:48:10.974Z,30.63
2018-11-26T17:50:42.171Z,31.03
2018-11-26T17:53:13.942Z,29.03
2018-11-26T17:55:49.548Z,29.82
2018-11-26T17:58:20.018Z,30.23
2018-11-26T18:01:53.278Z,26.93
2018-11-26T18:04:22.319Z,26.73
2018-11-26T18:06:51.423Z,27.10
2018-11-26T18:09:22.837Z,27.50
2018-11-26T18:11:49.479Z,33.70
2018-11-26T18:14:18.558Z,37.40
2018-11-26T18:16:47.902Z,32.73
2018-11-26T18:19:17.130Z,33.97
2018-11-26T18:21:46.159Z,31.60
2018-11-26T18:24:15.181Z,30.80
2018-11-26T18:26:44.230Z,30.93
2018-11-26T18:29:13.287Z,33.00
2018-11-26T18:31:42.523Z,32.23
2018-11-26T18:34:11.651Z,32.13
2018-11-26T18:36:40.705Z,29.50
2018-11-26T18:39:10.910Z,35.00
2018-11-26T18:41:39.991Z,39.60
2018-11-26T18:44:09.057Z,35.50
2018-11-26T18:46:38.095Z,31.30
2018-11-26T18:49:07.104Z,31.90
2018-11-26T18:51:36.139Z,31.53
2018-11-26T18:54:05.332Z,32.35
2018-11-26T18:56:34.435Z,29.13
2018-11-26T18:59:03.483Z,31.20
2018-11-26T19:01:32.531Z,29.03
2018-11-26T19:04:01.532Z,29.90
2018-11-26T19:06:30.572Z,30.43
2018-11-26T19:09:00.518Z,30.97
2018-11-26T19:11:29.662Z,28.07
2018-11-26T19:14:06.285Z,31.03
2018-11-26T19:16:41.963Z,31.73
2018-11-26T19:19:11.066Z,29.20
2018-11-26T19:21:40.734Z,31.37
2018-11-26T19:24:10.338Z,29.83
2018-11-26T19:26:39.991Z,30.53
2018-11-26T19:29:09.415Z,29.20
2018-11-26T19:31:38.550Z,30.20
2018-11-26T19:34:07.626Z,31.20
2018-11-26T19:36:36.656Z,30.83
2018-11-26T19:39:09.042Z,31.97
2018-11-26T19:41:38.415Z,32.50
2018-11-26T19:44:07.539Z,31.60
2018-11-26T19:46:36.562Z,31.03
2018-11-26T19:49:05.731Z,30.83
2018-11-26T19:51:34.851Z,30.73
2018-11-26T19:54:04.023Z,30.97
2018-11-26T19:56:33.109Z,32.98
2018-11-26T19:59:02.153Z,32.77
2018-11-26T20:01:31.183Z,32.60
2018-11-26T20:04:21.687Z,28.43
2018-11-26T20:06:50.706Z,31.73
2018-11-26T20:09:19.720Z,32.83
2018-11-26T20:11:48.789Z,29.03
2018-11-26T20:14:25.693Z,31.87
2018-11-26T20:16:46.990Z,34.37
2018-11-26T20:19:16.231Z,32.40
2018-11-26T20:21:45.238Z,31.63
2018-11-26T20:24:15.378Z,32.85
2018-11-26T20:26:44.456Z,31.83
2018-11-26T20:29:13.511Z,33.87
2018-11-26T20:31:42.529Z,32.40
2018-11-26T20:34:11.534Z,33.77
2018-11-26T20:36:40.624Z,34.20
2018-11-26T20:39:11.765Z,35.37
2018-11-26T20:41:41.104Z,33.90
2018-11-26T20:44:11.657Z,31.57
2018-11-26T20:46:41.905Z,34.27
2018-11-26T20:49:12.987Z,34.23
2018-11-26T20:51:42.521Z,30.73
2018-11-26T20:54:12.580Z,31.97
2018-11-26T20:56:42.116Z,33.95
2018-11-26T20:59:37.587Z,33.10
2018-11-26T21:02:07.803Z,31.07
2018-11-26T21:04:40.160Z,32.60
2018-11-26T21:07:10.617Z,34.53
2018-11-26T21:09:41.771Z,30.37
2018-11-26T21:12:11.415Z,31.20
2018-11-26T21:14:41.009Z,32.17
2018-11-26T21:17:11.277Z,31.53
2018-11-26T21:19:43.127Z,33.10
2018-11-26T21:22:12.751Z,33.70
2018-11-26T21:24:42.439Z,32.93
2018-11-26T21:27:12.291Z,34.20
2018-11-26T21:29:45.273Z,32.68
2018-11-26T21:32:14.661Z,33.67
2018-11-26T21:35:00.074Z,32.70
2018-11-26T21:37:29.635Z,32.65
2018-11-26T21:40:00.959Z,30.93
2018-11-26T21:42:31.077Z,32.93
2018-11-26T21:45:02.527Z,33.58
2018-11-26T21:47:32.177Z,31.70
2018-11-26T21:50:02.312Z,33.93
2018-11-26T21:52:32.505Z,32.93
2018-11-26T21:55:03.804Z,33.50
2018-11-26T21:57:34.619Z,34.83
2018-11-26T22:00:07.866Z,33.60
2018-11-26T22:02:38.059Z,32.67
2018-11-26T22:05:09.448Z,34.13
2018-11-26T22:07:38.951Z,34.53
2018-11-26T22:10:14.384Z,33.10
2018-11-26T22:15:56.147Z,33.57
2018-11-26T22:18:25.191Z,33.50
2018-11-26T22:20:54.263Z,33.03
2018-11-26T22:23:23.326Z,33.93
2018-11-26T22:25:52.438Z,33.57
2018-11-26T22:28:21.465Z,31.63
2018-11-26T22:30:50.679Z,33.13
2018-11-26T22:33:19.849Z,34.00
2018-11-26T22:35:49.069Z,32.70
2018-11-26T22:38:20.746Z,34.07
2018-11-26T22:40:52.170Z,33.43
2018-11-26T22:43:21.338Z,32.73
2018-11-26T22:45:50.429Z,35.63
2018-11-26T22:48:21.878Z,34.43
2018-11-26T22:50:51.370Z,31.80
2018-11-26T22:53:22.711Z,34.77
2018-11-26T22:55:57.910Z,33.38
2018-11-26T22:58:29.172Z,35.35
2018-11-26T23:01:00.476Z,33.27
2018-11-26T23:03:32.292Z,34.17
2018-11-26T23:10:59.746Z,32.43
2018-11-26T23:13:28.970Z,32.23
2018-11-26T23:15:59.981Z,33.37
2018-11-26T23:18:37.610Z,33.80
2018-11-26T23:21:07.053Z,32.63
2018-11-26T23:23:36.379Z,33.10
2018-11-26T23:26:06.984Z,32.97
2018-11-26T23:28:46.205Z,32.83
2018-11-26T23:31:16.242Z,32.03
2018-11-26T23:33:45.461Z,32.43
2018-11-26T23:36:15.519Z,32.00
2018-11-26T23:38:44.904Z,30.97
2018-11-26T23:41:14.358Z,31.37
2018-11-26T23:43:43.661Z,33.07
2018-11-26T23:46:13.262Z,34.73
2018-11-26T23:48:44.283Z,32.37
2018-11-26T23:51:15.117Z,32.13
2018-11-26T23:53:44.913Z,31.23
2018-11-26T23:56:15.295Z,31.77
2018-11-26T23:58:46.791Z,30.20
